createdAt,value
2023-05-09T00:01:06.940Z,100549.81
2023-05-09T00:03:33.657Z,100548.68
2023-05-09T00:06:01.521Z,100545.73
2023-05-09T00:08:28.484Z,100544.27
2023-05-09T00:10:55.231Z,100547.88
2023-05-09T00:13:23.092Z,100550.19
2023-05-09T00:15:53.408Z,100549.52
2023-05-09T00:18:21.574Z,100549.89
2023-05-09T00:20:49.397Z,100549.27
2023-05-09T00:23:16.274Z,100550.52
2023-05-09T00:25:43.192Z,100549.00
2023-05-09T00:28:10.326Z,100548.38
2023-05-09T00:30:37.884Z,100551.55
2023-05-09T00:33:05.685Z,100548.46
2023-05-09T00:35:32.698Z,100547.84
2023-05-09T00:37:59.644Z,100548.34
2023-05-09T00:40:26.385Z,100553.10
2023-05-09T00:42:55.373Z,100548.09
2023-05-09T00:45:22.210Z,100552.11
2023-05-09T00:47:49.086Z,100551.08
2023-05-09T00:50:16.516Z,100545.19
2023-05-09T00:52:43.354Z,100546.38
2023-05-09T00:55:10.421Z,100544.02
2023-05-09T00:57:38.107Z,100544.27
2023-05-09T01:00:06.128Z,100544.98
2023-05-09T01:02:33.444Z,100545.90
2023-05-09T01:05:01.452Z,100546.75
2023-05-09T01:07:37.820Z,100552.30
2023-05-09T01:10:16.273Z,100553.41
2023-05-09T01:12:43.011Z,100553.92
2023-05-09T01:15:31.650Z,100551.87
2023-05-09T01:18:25.705Z,100552.80
2023-05-09T01:21:04.145Z,100556.55
2023-05-09T01:24:09.477Z,100554.59
2023-05-09T01:27:13.577Z,100555.40
2023-05-09T01:29:59.582Z,100556.77
2023-05-09T01:32:27.724Z,100553.94
2023-05-09T01:34:56.137Z,100553.52
2023-05-09T01:37:35.873Z,100559.41
2023-05-09T01:40:20.934Z,100556.05
2023-05-09T01:42:57.978Z,100555.52
2023-05-09T01:45:24.759Z,100558.48
2023-05-09T01:47:51.564Z,100556.46
2023-05-09T01:50:18.849Z,100557.15
2023-05-09T01:52:49.597Z,100552.39
2023-05-09T01:55:16.701Z,100555.17
2023-05-09T01:57:45.212Z,100547.80
2023-05-09T02:00:13.318Z,100555.64
2023-05-09T02:02:40.544Z,100554.45
2023-05-09T02:05:08.970Z,100554.84
2023-05-09T02:07:35.755Z,100555.41
2023-05-09T02:10:02.923Z,100555.79
2023-05-09T02:12:29.889Z,100554.29
2023-05-09T02:14:56.787Z,100554.45
2023-05-09T02:17:23.665Z,100550.52
2023-05-09T02:19:50.431Z,100554.86
2023-05-09T02:22:17.249Z,100554.67
2023-05-09T02:24:47.060Z,100555.06
2023-05-09T02:27:14.215Z,100555.39
2023-05-09T02:29:49.003Z,100556.58
2023-05-09T02:32:18.723Z,100555.97
2023-05-09T02:34:46.326Z,100558.44
2023-05-09T02:37:13.138Z,100555.16
2023-05-09T02:39:40.159Z,100557.05
2023-05-09T02:42:11.096Z,100556.89
2023-05-09T02:44:40.670Z,100560.30
2023-05-09T02:47:07.868Z,100557.73
2023-05-09T02:49:35.930Z,100559.52
2023-05-09T02:52:03.496Z,100562.56
2023-05-09T02:54:30.337Z,100563.70
2023-05-09T02:56:57.272Z,100562.09
2023-05-09T02:59:25.136Z,100562.65
2023-05-09T03:01:52.596Z,100564.30
2023-05-09T03:04:19.642Z,100565.70
2023-05-09T03:06:46.402Z,100563.61
2023-05-09T03:09:13.727Z,100557.98
2023-05-09T03:11:40.672Z,100564.52
2023-05-09T03:14:08.077Z,100562.92
2023-05-09T03:16:35.391Z,100560.33
2023-05-09T03:19:03.148Z,100565.27
2023-05-09T03:21:31.487Z,100567.64
2023-05-09T03:23:58.886Z,100566.05
2023-05-09T03:26:25.987Z,100570.00
2023-05-09T03:28:53.691Z,100575.13
2023-05-09T03:31:20.749Z,100577.61
2023-05-09T03:33:47.835Z,100581.27
2023-05-09T03:36:14.934Z,100581.48
2023-05-09T03:38:42.805Z,100585.58
2023-05-09T03:41:09.878Z,100588.67
2023-05-09T03:43:36.649Z,100589.73
2023-05-09T03:46:03.530Z,100594.77
2023-05-09T03:48:32.215Z,100597.45
2023-05-09T03:50:59.175Z,100599.10
2023-05-09T03:53:26.969Z,100600.41
2023-05-09T03:55:54.829Z,100598.21
2023-05-09T03:58:23.287Z,100596.02
2023-05-09T04:00:50.625Z,100599.80
2023-05-09T04:03:20.291Z,100599.45
2023-05-09T04:05:47.739Z,100604.23
2023-05-09T04:08:23.036Z,100599.21
2023-05-09T04:10:50.491Z,100605.83
2023-05-09T04:13:17.502Z,100603.94
2023-05-09T04:15:45.452Z,100606.11
2023-05-09T04:18:12.652Z,100605.89
2023-05-09T04:20:39.491Z,100610.11
2023-05-09T04:23:06.540Z,100609.39
2023-05-09T04:25:33.852Z,100608.52
2023-05-09T04:28:01.771Z,100610.41
2023-05-09T04:30:29.089Z,100616.58
2023-05-09T04:32:56.091Z,100618.60
2023-05-09T04:35:23.102Z,100617.41
2023-05-09T04:37:51.452Z,100621.43
2023-05-09T04:40:18.762Z,100627.59
2023-05-09T04:42:56.841Z,100626.62
2023-05-09T04:45:26.243Z,100628.13
2023-05-09T04:47:53.138Z,100628.20
2023-05-09T04:50:20.117Z,100630.67
2023-05-09T04:52:47.002Z,100628.55
2023-05-09T04:55:14.991Z,100635.02
2023-05-09T04:57:44.422Z,100633.67
2023-05-09T05:00:12.295Z,100631.42
2023-05-09T05:02:40.349Z,100631.81
2023-05-09T05:05:11.954Z,100635.20
2023-05-09T05:07:42.070Z,100638.38
2023-05-09T05:10:10.333Z,100637.94
2023-05-09T05:12:38.090Z,100641.83
2023-05-09T05:15:05.968Z,100639.36
2023-05-09T05:17:33.426Z,100639.53
2023-05-09T05:20:00.716Z,100639.56
2023-05-09T05:22:28.122Z,100640.12
2023-05-09T05:24:55.515Z,100643.27
2023-05-09T05:27:22.470Z,100639.82
2023-05-09T05:29:49.659Z,100640.84
2023-05-09T05:32:16.973Z,100642.27
2023-05-09T05:34:43.713Z,100645.79
2023-05-09T05:37:10.683Z,100643.20
2023-05-09T05:39:37.679Z,100645.01
2023-05-09T05:42:04.803Z,100649.13
2023-05-09T05:44:32.258Z,100648.33
2023-05-09T05:46:59.096Z,100645.32
2023-05-09T05:49:26.657Z,100648.05
2023-05-09T05:51:53.709Z,100648.23
2023-05-09T05:54:21.807Z,100641.80
2023-05-09T05:56:48.723Z,100632.23
2023-05-09T05:59:15.778Z,100635.98
2023-05-09T06:01:42.776Z,100636.27
2023-05-09T06:04:09.933Z,100636.30
2023-05-09T06:06:37.107Z,100639.08
2023-05-09T06:09:03.931Z,100637.06
2023-05-09T06:11:30.862Z,100644.55
2023-05-09T06:13:58.977Z,100641.69
2023-05-09T06:16:27.384Z,100645.79
2023-05-09T06:18:55.969Z,100644.28
2023-05-09T06:21:23.260Z,100649.40
2023-05-09T06:24:04.293Z,100646.31
2023-05-09T06:26:35.961Z,100647.52
2023-05-09T06:29:03.456Z,100651.20
2023-05-09T06:31:30.536Z,100651.70
2023-05-09T06:33:57.570Z,100655.59
2023-05-09T06:36:24.388Z,100651.84
2023-05-09T06:38:51.173Z,100649.78
2023-05-09T06:41:17.967Z,100649.16
2023-05-09T06:43:45.139Z,100642.05
2023-05-09T06:46:11.986Z,100647.11
2023-05-09T06:48:39.036Z,100642.39
2023-05-09T06:51:05.945Z,100644.86
2023-05-09T06:53:32.801Z,100651.33
2023-05-09T06:55:59.861Z,100650.09
2023-05-09T06:58:27.232Z,100642.60
2023-05-09T07:00:53.984Z,100643.64
2023-05-09T07:03:20.792Z,100648.69
2023-05-09T07:05:47.767Z,100646.92
2023-05-09T07:08:14.585Z,100648.42
2023-05-09T07:10:41.433Z,100648.36
2023-05-09T07:13:08.335Z,100646.41
2023-05-09T07:15:41.986Z,100644.94
2023-05-09T07:18:09.915Z,100641.67
2023-05-09T07:20:37.058Z,100643.62
2023-05-09T07:23:04.244Z,100645.11
2023-05-09T07:25:31.086Z,100642.98
2023-05-09T07:27:57.785Z,100627.16
2023-05-09T07:30:24.616Z,100626.79
2023-05-09T07:32:51.562Z,100623.34
2023-05-09T07:35:19.045Z,100615.66
2023-05-09T07:37:45.840Z,100620.25
2023-05-09T07:40:12.979Z,100616.27
2023-05-09T07:42:40.200Z,100619.14
2023-05-09T07:45:07.439Z,100619.71
2023-05-09T07:47:34.696Z,100621.02
2023-05-09T07:50:01.557Z,100613.69
2023-05-09T07:52:28.577Z,100608.66
2023-05-09T07:54:55.354Z,100615.30
2023-05-09T07:57:22.421Z,100612.79
2023-05-09T07:59:49.188Z,100611.95
2023-05-09T08:02:16.387Z,100612.67
2023-05-09T08:04:43.411Z,100611.05
2023-05-09T08:07:11.233Z,100617.72
2023-05-09T08:09:37.979Z,100616.14
2023-05-09T08:12:05.468Z,100614.54
2023-05-09T08:14:32.308Z,100611.05
2023-05-09T08:16:59.739Z,100602.44
2023-05-09T08:19:26.813Z,100609.34
2023-05-09T08:21:53.874Z,100609.11
2023-05-09T08:24:20.605Z,100612.61
2023-05-09T08:26:47.437Z,100613.98
2023-05-09T08:29:14.295Z,100611.10
2023-05-09T08:31:41.208Z,100611.33
2023-05-09T08:34:08.416Z,100604.33
2023-05-09T08:36:38.887Z,100599.54
2023-05-09T08:39:05.666Z,100597.31
2023-05-09T08:41:35.312Z,100595.92
2023-05-09T08:44:02.396Z,100593.29
2023-05-09T08:46:32.065Z,100590.85
2023-05-09T08:48:58.925Z,100595.08
2023-05-09T08:51:25.700Z,100596.03
2023-05-09T08:53:52.557Z,100602.13
2023-05-09T08:56:19.494Z,100594.48
2023-05-09T08:58:46.514Z,100597.60
2023-05-09T09:01:13.581Z,100597.21
2023-05-09T09:03:46.979Z,100596.45
2023-05-09T09:06:13.883Z,100594.21
2023-05-09T09:08:42.409Z,100592.48
2023-05-09T09:11:12.861Z,100595.43
2023-05-09T09:13:40.637Z,100589.90
2023-05-09T09:16:14.235Z,100591.02
2023-05-09T09:18:40.974Z,100592.10
2023-05-09T09:21:09.426Z,100594.80
2023-05-09T09:23:37.090Z,100596.23
2023-05-09T09:26:04.366Z,100583.54
2023-05-09T09:28:32.373Z,100581.80
2023-05-09T09:30:59.256Z,100582.42
2023-05-09T09:33:26.578Z,100580.38
2023-05-09T09:35:54.979Z,100577.86
2023-05-09T09:38:22.579Z,100585.71
2023-05-09T09:40:55.884Z,100572.58
2023-05-09T09:43:41.029Z,100572.42
2023-05-09T09:46:09.296Z,100569.36
2023-05-09T09:48:37.664Z,100570.34
2023-05-09T09:51:09.469Z,100574.29
2023-05-09T09:53:42.866Z,100572.61
2023-05-09T09:56:09.613Z,100577.12
2023-05-09T09:58:36.545Z,100565.94
2023-05-09T10:01:20.230Z,100572.27
2023-05-09T10:03:47.539Z,100573.59
2023-05-09T10:06:15.419Z,100569.90
2023-05-09T10:08:46.226Z,100578.58
2023-05-09T10:11:13.651Z,100579.21
2023-05-09T10:13:40.731Z,100578.00
2023-05-09T10:16:08.151Z,100575.43
2023-05-09T10:18:35.685Z,100576.05
2023-05-09T10:21:04.569Z,100574.48
2023-05-09T10:23:33.868Z,100573.48
2023-05-09T10:26:03.501Z,100569.43
2023-05-09T10:28:32.977Z,100567.64
2023-05-09T10:31:01.167Z,100554.80
2023-05-09T10:33:33.946Z,100546.14
2023-05-09T10:36:00.661Z,100545.69
2023-05-09T10:38:27.366Z,100547.48
2023-05-09T10:40:54.168Z,100553.92
2023-05-09T10:43:23.525Z,100548.73
2023-05-09T10:45:51.267Z,100535.11
2023-05-09T10:48:18.222Z,100537.29
2023-05-09T10:50:45.789Z,100532.21
2023-05-09T10:53:18.464Z,100535.06
2023-05-09T10:55:50.517Z,100534.86
2023-05-09T10:58:19.523Z,100530.14
2023-05-09T11:00:47.667Z,100526.80
2023-05-09T11:03:14.566Z,100525.41
2023-05-09T11:05:41.604Z,100531.11
2023-05-09T11:08:18.781Z,100527.76
2023-05-09T11:10:45.625Z,100520.69
2023-05-09T11:13:12.645Z,100514.73
2023-05-09T11:16:12.036Z,100516.08
2023-05-09T11:18:52.186Z,100520.84
2023-05-09T11:21:19.853Z,100511.02
2023-05-09T11:23:47.373Z,100515.69
2023-05-09T11:26:15.542Z,100516.95
2023-05-09T11:28:42.396Z,100511.20
2023-05-09T11:31:14.513Z,100514.65
2023-05-09T11:33:42.284Z,100513.02
2023-05-09T11:36:29.172Z,100512.27
2023-05-09T11:39:06.593Z,100511.78
2023-05-09T11:41:43.303Z,100511.09
2023-05-09T11:44:17.832Z,100512.80
2023-05-09T11:46:45.400Z,100506.68
2023-05-09T11:49:12.541Z,100498.95
2023-05-09T11:51:39.536Z,100489.48
2023-05-09T11:54:07.000Z,100497.73
2023-05-09T11:56:34.812Z,100496.05
2023-05-09T11:59:02.029Z,100494.17
2023-05-09T12:01:29.330Z,100486.34
2023-05-09T12:03:57.676Z,100472.55
2023-05-09T12:06:29.293Z,100469.03
2023-05-09T12:08:58.893Z,100479.46
2023-05-09T12:11:25.657Z,100476.23
2023-05-09T12:13:52.475Z,100473.45
2023-05-09T12:16:19.575Z,100470.64
2023-05-09T12:18:47.840Z,100469.58
2023-05-09T12:21:15.022Z,100465.55
2023-05-09T12:23:41.767Z,100460.27
2023-05-09T12:26:09.040Z,100462.33
2023-05-09T12:28:35.821Z,100462.01
2023-05-09T12:31:03.435Z,100457.61
2023-05-09T12:33:30.470Z,100455.83
2023-05-09T12:36:06.488Z,100454.17
2023-05-09T12:38:34.074Z,100454.26
2023-05-09T12:41:18.246Z,100449.45
2023-05-09T12:43:55.102Z,100444.23
2023-05-09T12:46:22.008Z,100438.52
2023-05-09T12:48:48.943Z,100436.42
2023-05-09T12:51:20.262Z,100435.98
2023-05-09T12:53:47.093Z,100435.43
2023-05-09T12:56:18.130Z,100431.86
2023-05-09T12:58:49.608Z,100430.61
2023-05-09T13:01:17.279Z,100431.39
2023-05-09T13:03:44.299Z,100440.55
2023-05-09T13:06:12.689Z,100441.19
2023-05-09T13:08:40.179Z,100435.61
2023-05-09T13:13:41.940Z,100423.50
2023-05-09T13:16:10.333Z,100422.80
2023-05-09T13:18:38.560Z,100422.52
2023-05-09T13:21:05.368Z,100425.72
2023-05-09T13:23:32.180Z,100420.91
2023-05-09T13:25:59.024Z,100417.06
2023-05-09T13:28:25.991Z,100419.05
2023-05-09T13:30:52.760Z,100420.35
2023-05-09T13:33:25.849Z,100414.61
2023-05-09T13:35:53.593Z,100411.13
2023-05-09T13:38:20.600Z,100404.15
2023-05-09T13:40:47.319Z,100410.81
2023-05-09T13:43:14.020Z,100404.48
2023-05-09T13:45:40.792Z,100400.64
2023-05-09T13:48:07.912Z,100409.55
2023-05-09T13:50:34.687Z,100403.70
2023-05-09T13:53:01.587Z,100404.26
2023-05-09T13:55:30.216Z,100404.50
2023-05-09T13:57:57.125Z,100400.67
2023-05-09T14:00:26.830Z,100400.61
2023-05-09T14:02:53.699Z,100403.35
2023-05-09T14:05:20.527Z,100402.11
2023-05-09T14:07:47.360Z,100396.30
2023-05-09T14:10:14.132Z,100387.55
2023-05-09T14:12:43.737Z,100385.91
2023-05-09T14:15:10.468Z,100382.77
2023-05-09T14:17:37.433Z,100377.80
2023-05-09T14:20:05.910Z,100375.30
2023-05-09T14:22:32.991Z,100386.04
2023-05-09T14:24:59.807Z,100383.32
2023-05-09T14:27:26.922Z,100380.01
2023-05-09T14:29:53.727Z,100379.48
2023-05-09T14:32:20.569Z,100373.18
2023-05-09T14:34:49.067Z,100369.23
2023-05-09T14:37:16.382Z,100368.20
2023-05-09T14:39:44.618Z,100371.66
2023-05-09T14:42:13.437Z,100369.95
2023-05-09T14:44:40.647Z,100371.39
2023-05-09T14:47:08.901Z,100366.36
2023-05-09T14:49:36.281Z,100365.15
2023-05-09T14:52:03.293Z,100366.70
2023-05-09T14:54:31.083Z,100360.44
2023-05-09T14:56:58.884Z,100360.85
2023-05-09T14:59:25.654Z,100364.23
2023-05-09T15:01:53.075Z,100357.65
2023-05-09T15:04:19.825Z,100353.10
2023-05-09T15:06:46.675Z,100356.09
2023-05-09T15:09:14.020Z,100358.91
2023-05-09T15:11:48.445Z,100348.37
2023-05-09T15:14:16.035Z,100353.05
2023-05-09T15:16:42.801Z,100355.39
2023-05-09T15:19:09.593Z,100353.48
2023-05-09T15:21:36.503Z,100358.84
2023-05-09T15:24:04.207Z,100359.36
2023-05-09T15:26:31.767Z,100357.45
2023-05-09T15:28:58.576Z,100351.31
2023-05-09T15:31:25.642Z,100359.53
2023-05-09T15:33:52.636Z,100353.05
2023-05-09T15:36:19.650Z,100354.02
2023-05-09T15:38:49.101Z,100349.51
2023-05-09T15:41:16.316Z,100348.23
2023-05-09T15:43:43.597Z,100342.30
2023-05-09T15:46:10.466Z,100342.98
2023-05-09T15:48:37.420Z,100342.63
2023-05-09T15:51:04.667Z,100338.64
2023-05-09T15:53:32.117Z,100341.64
2023-05-09T15:55:58.891Z,100334.88
2023-05-09T15:58:25.721Z,100338.60
2023-05-09T16:00:52.474Z,100341.39
2023-05-09T16:03:19.527Z,100344.12
2023-05-09T16:05:46.526Z,100347.00
2023-05-09T16:08:13.893Z,100344.37
2023-05-09T16:10:40.646Z,100343.73
2023-05-09T16:13:08.835Z,100341.08
2023-05-09T16:15:35.940Z,100340.35
2023-05-09T16:18:03.232Z,100338.08
2023-05-09T16:20:30.991Z,100335.13
2023-05-09T16:22:58.017Z,100336.14
2023-05-09T16:25:24.804Z,100339.44
2023-05-09T16:27:53.039Z,100335.91
2023-05-09T16:30:19.868Z,100321.48
2023-05-09T16:32:46.857Z,100320.73
2023-05-09T16:35:13.691Z,100321.28
2023-05-09T16:37:40.536Z,100321.12
2023-05-09T16:40:08.145Z,100316.24
2023-05-09T16:42:35.498Z,100308.70
2023-05-09T16:45:02.322Z,100307.94
2023-05-09T16:47:29.372Z,100310.38
2023-05-09T16:49:56.221Z,100308.89
2023-05-09T16:52:23.362Z,100316.70
2023-05-09T16:54:50.252Z,100321.27
2023-05-09T16:57:17.241Z,100320.47
2023-05-09T16:59:44.146Z,100324.52
2023-05-09T17:02:10.914Z,100324.21
2023-05-09T17:04:37.984Z,100323.53
2023-05-09T17:07:05.229Z,100323.42
2023-05-09T17:09:32.060Z,100326.08
2023-05-09T17:11:59.967Z,100326.08
2023-05-09T17:14:26.950Z,100321.51
2023-05-09T17:16:54.293Z,100327.27
2023-05-09T17:19:22.847Z,100324.83
2023-05-09T17:21:49.715Z,100329.18
2023-05-09T17:24:16.722Z,100329.92
2023-05-09T17:26:43.446Z,100334.61
2023-05-09T17:29:10.188Z,100337.55
2023-05-09T17:31:37.393Z,100335.27
2023-05-09T17:34:04.906Z,100336.29
2023-05-09T17:36:32.930Z,100336.70
2023-05-09T17:39:00.281Z,100337.83
2023-05-09T17:41:27.118Z,100340.89
2023-05-09T17:43:56.745Z,100344.03
2023-05-09T17:46:23.712Z,100346.27
2023-05-09T17:48:50.767Z,100344.80
2023-05-09T17:51:17.690Z,100347.92
2023-05-09T17:53:44.549Z,100347.41
2023-05-09T17:56:11.300Z,100349.58
2023-05-09T17:58:38.289Z,100349.66
2023-05-09T18:01:05.095Z,100351.63
2023-05-09T18:03:32.819Z,100352.14
2023-05-09T18:05:59.925Z,100354.63
2023-05-09T18:08:27.178Z,100350.98
2023-05-09T18:10:54.138Z,100348.95
2023-05-09T18:13:21.048Z,100353.23
2023-05-09T18:15:47.979Z,100329.41
2023-05-09T18:18:17.871Z,100333.02
2023-05-09T18:20:46.461Z,100334.77
2023-05-09T18:23:14.239Z,100337.55
2023-05-09T18:25:41.426Z,100335.36
2023-05-09T18:28:08.733Z,100337.79
2023-05-09T18:30:36.024Z,100339.99
2023-05-09T18:33:03.176Z,100344.70
2023-05-09T18:35:31.019Z,100342.89
2023-05-09T18:37:57.869Z,100346.14
2023-05-09T18:40:24.705Z,100348.13
2023-05-09T18:42:51.522Z,100339.20
2023-05-09T18:45:18.398Z,100331.38
2023-05-09T18:47:45.639Z,100337.17
2023-05-09T18:50:13.229Z,100341.93
2023-05-09T18:52:40.172Z,100345.30
2023-05-09T18:55:07.296Z,100344.64
2023-05-09T18:57:34.175Z,100337.02
2023-05-09T19:00:01.500Z,100338.15
2023-05-09T19:02:29.575Z,100337.11
2023-05-09T19:04:56.417Z,100333.84
2023-05-09T19:07:23.568Z,100332.88
2023-05-09T19:09:50.808Z,100336.94
2023-05-09T19:12:17.618Z,100328.20
2023-05-09T19:14:44.427Z,100331.77
2023-05-09T19:17:11.330Z,100336.36
2023-05-09T19:19:38.108Z,100334.48
2023-05-09T19:22:05.559Z,100331.30
2023-05-09T19:24:32.614Z,100328.88
2023-05-09T19:26:59.636Z,100328.58
2023-05-09T19:29:26.418Z,100329.40
2023-05-09T19:31:53.080Z,100324.23
2023-05-09T19:34:19.884Z,100331.30
2023-05-09T19:36:46.649Z,100333.66
2023-05-09T19:39:13.672Z,100327.98
2023-05-09T19:41:40.889Z,100327.22
2023-05-09T19:44:07.778Z,100328.41
2023-05-09T19:46:37.378Z,100325.20
2023-05-09T19:49:04.416Z,100323.83
2023-05-09T19:51:31.283Z,100324.69
2023-05-09T19:53:58.073Z,100323.02
2023-05-09T19:56:25.164Z,100326.53
2023-05-09T19:58:52.044Z,100327.14
2023-05-09T20:01:19.499Z,100330.02
2023-05-09T20:03:46.626Z,100329.20
2023-05-09T20:06:13.824Z,100329.08
2023-05-09T20:08:40.785Z,100330.02
2023-05-09T20:11:07.524Z,100325.39
2023-05-09T20:13:35.803Z,100323.52
2023-05-09T20:16:03.041Z,100316.12
2023-05-09T20:18:32.975Z,100308.94
2023-05-09T20:21:00.906Z,100307.86
2023-05-09T20:23:28.391Z,100307.08
2023-05-09T20:25:55.636Z,100307.80
2023-05-09T20:28:22.892Z,100306.10
2023-05-09T20:30:49.840Z,100307.85
2023-05-09T20:33:17.058Z,100306.37
2023-05-09T20:35:43.993Z,100305.42
2023-05-09T20:38:11.289Z,100306.58
2023-05-09T20:40:38.098Z,100308.80
2023-05-09T20:43:04.959Z,100305.11
2023-05-09T20:45:31.964Z,100301.20
2023-05-09T20:47:58.881Z,100297.49
2023-05-09T20:50:25.896Z,100298.56
2023-05-09T20:52:52.744Z,100296.83
2023-05-09T20:55:21.087Z,100298.23
2023-05-09T20:57:48.067Z,100291.81
2023-05-09T21:00:15.566Z,100291.76
2023-05-09T21:02:42.884Z,100290.41
2023-05-09T21:05:09.932Z,100296.02
2023-05-09T21:07:36.868Z,100298.52
2023-05-09T21:10:03.934Z,100298.73
2023-05-09T21:12:32.259Z,100303.86
2023-05-09T21:14:59.052Z,100297.09
2023-05-09T21:17:25.836Z,100295.95
2023-05-09T21:19:52.823Z,100295.74
2023-05-09T21:22:19.804Z,100295.05
2023-05-09T21:24:46.763Z,100291.27
2023-05-09T21:27:14.113Z,100286.83
2023-05-09T21:29:40.858Z,100292.40
2023-05-09T21:32:07.562Z,100292.05
2023-05-09T21:34:34.950Z,100288.39
2023-05-09T21:37:01.706Z,100284.83
2023-05-09T21:39:28.680Z,100286.71
2023-05-09T21:41:55.469Z,100279.80
2023-05-09T21:44:22.233Z,100280.66
2023-05-09T21:46:49.160Z,100281.18
2023-05-09T21:49:16.495Z,100277.17
2023-05-09T21:51:43.396Z,100271.54
2023-05-09T21:54:10.549Z,100270.84
2023-05-09T21:56:37.392Z,100265.51
2023-05-09T21:59:04.335Z,100266.53
2023-05-09T22:01:31.359Z,100265.09
2023-05-09T22:03:58.488Z,100261.98
2023-05-09T22:06:25.471Z,100260.77
2023-05-09T22:08:52.252Z,100259.48
2023-05-09T22:11:19.978Z,100259.30
2023-05-09T22:13:46.767Z,100258.95
2023-05-09T22:16:13.527Z,100261.69
2023-05-09T22:18:40.278Z,100263.55
2023-05-09T22:21:07.185Z,100262.39
2023-05-09T22:23:34.211Z,100264.39
2023-05-09T22:26:01.040Z,100261.92
2023-05-09T22:28:28.823Z,100261.63
2023-05-09T22:30:55.619Z,100260.05
2023-05-09T22:33:22.409Z,100256.53
2023-05-09T22:35:49.471Z,100249.89
2023-05-09T22:38:16.327Z,100248.67
2023-05-09T22:40:43.252Z,100249.52
2023-05-09T22:43:10.628Z,100246.38
2023-05-09T22:45:37.623Z,100247.23
2023-05-09T22:48:05.429Z,100246.76
2023-05-09T22:50:32.245Z,100243.27
2023-05-09T22:52:58.911Z,100239.38
2023-05-09T22:55:25.720Z,100238.89
2023-05-09T22:57:52.630Z,100243.20
2023-05-09T23:00:19.703Z,100244.23
2023-05-09T23:02:46.504Z,100242.47
2023-05-09T23:05:13.422Z,100239.29
2023-05-09T23:07:40.345Z,100237.00
2023-05-09T23:10:07.790Z,100237.36
2023-05-09T23:12:34.593Z,100238.31
2023-05-09T23:15:01.457Z,100235.85
2023-05-09T23:17:28.782Z,100234.58
2023-05-09T23:19:55.969Z,100235.46
2023-05-09T23:22:23.261Z,100233.36
2023-05-09T23:24:50.316Z,100230.89
2023-05-09T23:27:17.091Z,100230.05
2023-05-09T23:29:43.934Z,100224.85
2023-05-09T23:32:10.723Z,100223.34
2023-05-09T23:34:38.285Z,100225.36
2023-05-09T23:37:05.047Z,100223.62
2023-05-09T23:39:32.411Z,100221.22
2023-05-09T23:41:59.251Z,100222.12
2023-05-09T23:44:26.120Z,100219.38
2023-05-09T23:46:53.109Z,100218.39
2023-05-09T23:49:20.252Z,100216.11
2023-05-09T23:51:47.323Z,100213.69
2023-05-09T23:54:15.937Z,100213.08
2023-05-09T23:56:43.154Z,100211.68
2023-05-09T23:59:09.940Z,100211.39
